sensor_id;sensor_type;location;lat;lon;timestamp;P1;durP1;ratioP1;P2;durP2;ratioP2
26824;SDS011;14402;48.178;11.566;2023-12-20T00:00:18;2.4;;;2.0;;
26824;SDS011;14402;48.178;11.566;2023-12-20T00:00:48;2.4;;;2.0;;
26824;SDS011;14402;48.178;11.566;2023-12-20T00:01:18;2.3;;;2.0;;
26824;SDS011;14402;48.178;11.566;2023-12-20T00:01:48;2.2;;;2.0;;
26824;SDS011;14402;48.178;11.566;2023-12-20T00:02:18;2.2;;;2.0;;
26824;SDS011;14402;48.178;11.566;2023-12-20T00:02:48;2.2;;;2.0;;
26824;SDS011;14402;48.178;11.566;2023-12-20T00:03:18;2.7;;;1.9;;
26824;SDS011;14402;48.178;11.566;2023-12-20T00:03:48;3.2;;;1.8;;
26824;SDS011;14402;48.178;11.566;2023-12-20T00:04:19;3.2;;;1.8;;
26824;SDS011;14402;48.178;11.566;2023-12-20T00:04:49;3.2;;;1.8;;
26824;SDS011;14402;48.178;11.566;2023-12-20T00:05:19;2.8;;;1.9;;
26824;SDS011;14402;48.178;11.566;2023-12-20T00:05:49;2.3;;;2.0;;
26824;SDS011;14402;48.178;11.566;2023-12-20T00:06:19;2.3;;;2.0;;
26824;SDS011;14402;48.178;11.566;2023-12-20T00:06:49;2.3;;;2.0;;
26824;SDS011;14402;48.178;11.566;2023-12-20T00:07:19;2.3;;;2.0;;
26824;SDS011;14402;48.178;11.566;2023-12-20T00:07:49;2.3;;;2.1;;
26824;SDS011;14402;48.178;11.566;2023-12-20T00:08:19;2.3;;;2.1;;
26824;SDS011;14402;48.178;11.566;2023-12-20T00:08:49;2.3;;;2.1;;
26824;SDS011;14402;48.178;11.566;2023-12-20T00:09:19;2.6;;;2.0;;
26824;SDS011;14402;48.178;11.566;2023-12-20T00:09:50;2.9;;;2.0;;
26824;SDS011;14402;48.178;11.566;2023-12-20T00:10:20;2.9;;;2.0;;
26824;SDS011;14402;48.178;11.566;2023-12-20T00:10:50;2.9;;;2.0;;
26824;SDS011;14402;48.178;11.566;2023-12-20T00:11:20;3.4;;;2.0;;
26824;SDS011;14402;48.178;11.566;2023-12-20T00:11:50;3.9;;;2.0;;
26824;SDS011;14402;48.178;11.566;2023-12-20T00:12:20;3.9;;;2.0;;
26824;SDS011;14402;48.178;11.566;2023-12-20T00:12:50;3.9;;;2.0;;
26824;SDS011;14402;48.178;11.566;2023-12-20T00:13:20;3.1;;;2.0;;
26824;SDS011;14402;48.178;11.566;2023-12-20T00:13:50;2.2;;;2.0;;
26824;SDS011;14402;48.178;11.566;2023-12-20T00:14:20;2.2;;;2.0;;
26824;SDS011;14402;48.178;11.566;2023-12-20T00:14:50;2.2;;;2.0;;
26824;SDS011;14402;48.178;11.566;2023-12-20T00:15:20;2.2;;;2.0;;
26824;SDS011;14402;48.178;11.566;2023-12-20T00:15:50;2.1;;;1.9;;
26824;SDS011;14402;48.178;11.566;2023-12-20T00:16:21;2.1;;;1.9;;
26824;SDS011;14402;48.178;11.566;2023-12-20T00:16:51;2.1;;;1.9;;
26824;SDS011;14402;48.178;11.566;2023-12-20T00:17:22;2.9;;;2.1;;
26824;SDS011;14402;48.178;11.566;2023-12-20T00:17:51;3.7;;;2.3;;
26824;SDS011;14402;48.178;11.566;2023-12-20T00:18:21;3.7;;;2.3;;
26824;SDS011;14402;48.178;11.566;2023-12-20T00:18:51;3.2;;;2.2;;
26824;SDS011;14402;48.178;11.566;2023-12-20T00:19:21;2.6;;;2.2;;
26824;SDS011;14402;48.178;11.566;2023-12-20T00:19:51;2.6;;;2.2;;
26824;SDS011;14402;48.178;11.566;2023-12-20T00:20:21;2.6;;;2.2;;
26824;SDS011;14402;48.178;11.566;2023-12-20T00:20:51;2.9;;;2.2;;
26824;SDS011;14402;48.178;11.566;2023-12-20T00:21:22;3.3;;;2.1;;
26824;SDS011;14402;48.178;11.566;2023-12-20T00:21:52;3.3;;;2.1;;
26824;SDS011;14402;48.178;11.566;2023-12-20T00:22:22;3.3;;;2.1;;
26824;SDS011;14402;48.178;11.566;2023-12-20T00:22:52;2.8;;;2.0;;
26824;SDS011;14402;48.178;11.566;2023-12-20T00:23:22;2.2;;;2.0;;
26824;SDS011;14402;48.178;11.566;2023-12-20T00:23:52;2.2;;;2.0;;
26824;SDS011;14402;48.178;11.566;2023-12-20T00:24:22;2.2;;;2.0;;
26824;SDS011;14402;48.178;11.566;2023-12-20T00:24:52;2.5;;;2.0;;
26824;SDS011;14402;48.178;11.566;2023-12-20T00:25:22;2.7;;;2.0;;
26824;SDS011;14402;48.178;11.566;2023-12-20T00:25:52;2.7;;;2.0;;
26824;SDS011;14402;48.178;11.566;2023-12-20T00:26:22;2.7;;;2.0;;
26824;SDS011;14402;48.178;11.566;2023-12-20T00:26:52;2.5;;;2.0;;
26824;SDS011;14402;48.178;11.566;2023-12-20T00:27:23;2.3;;;2.0;;
26824;SDS011;14402;48.178;11.566;2023-12-20T00:27:53;2.3;;;2.0;;
26824;SDS011;14402;48.178;11.566;2023-12-20T00:28:23;2.3;;;2.0;;
26824;SDS011;14402;48.178;11.566;2023-12-20T00:28:53;2.1;;;1.9;;
26824;SDS011;14402;48.178;11.566;2023-12-20T00:29:23;1.9;;;1.7;;
26824;SDS011;14402;48.178;11.566;2023-12-20T00:29:53;1.9;;;1.7;;
26824;SDS011;14402;48.178;11.566;2023-12-20T00:30:23;1.9;;;1.7;;
26824;SDS011;14402;48.178;11.566;2023-12-20T00:30:53;2.2;;;1.9;;
26824;SDS011;14402;48.178;11.566;2023-12-20T00:31:23;2.6;;;2.0;;
26824;SDS011;14402;48.178;11.566;2023-12-20T00:31:53;2.6;;;2.0;;
26824;SDS011;14402;48.178;11.566;2023-12-20T00:32:24;2.6;;;2.0;;
26824;SDS011;14402;48.178;11.566;2023-12-20T00:32:55;2.8;;;2.0;;
26824;SDS011;14402;48.178;11.566;2023-12-20T00:33:24;3.1;;;2.0;;
26824;SDS011;14402;48.178;11.566;2023-12-20T00:33:54;3.1;;;2.0;;
26824;SDS011;14402;48.178;11.566;2023-12-20T00:34:24;3.1;;;2.0;;
26824;SDS011;14402;48.178;11.566;2023-12-20T00:34:54;2.7;;;2.0;;
26824;SDS011;14402;48.178;11.566;2023-12-20T00:35:24;2.2;;;2.0;;
26824;SDS011;14402;48.178;11.566;2023-12-20T00:35:54;2.2;;;2.0;;
26824;SDS011;14402;48.178;11.566;2023-12-20T00:36:24;2.2;;;2.0;;
26824;SDS011;14402;48.178;11.566;2023-12-20T00:36:54;2.2;;;1.9;;
26824;SDS011;14402;48.178;11.566;2023-12-20T00:37:24;2.1;;;1.8;;
26824;SDS011;14402;48.178;11.566;2023-12-20T00:37:54;2.1;;;1.8;;
26824;SDS011;14402;48.178;11.566;2023-12-20T00:38:24;2.1;;;1.8;;
26824;SDS011;14402;48.178;11.566;2023-12-20T00:38:54;2.2;;;1.8;;
26824;SDS011;14402;48.178;11.566;2023-12-20T00:39:24;2.4;;;1.7;;
26824;SDS011;14402;48.178;11.566;2023-12-20T00:39:55;2.4;;;1.7;;
26824;SDS011;14402;48.178;11.566;2023-12-20T00:40:25;2.4;;;1.7;;
26824;SDS011;14402;48.178;11.566;2023-12-20T00:40:55;2.2;;;1.8;;
26824;SDS011;14402;48.178;11.566;2023-12-20T00:41:25;2.0;;;1.8;;
26824;SDS011;14402;48.178;11.566;2023-12-20T00:41:55;2.0;;;1.8;;
26824;SDS011;14402;48.178;11.566;2023-12-20T00:42:25;2.0;;;1.8;;
26824;SDS011;14402;48.178;11.566;2023-12-20T00:42:55;2.2;;;1.8;;
26824;SDS011;14402;48.178;11.566;2023-12-20T00:43:25;2.3;;;1.7;;
26824;SDS011;14402;48.178;11.566;2023-12-20T00:43:55;2.3;;;1.7;;
26824;SDS011;14402;48.178;11.566;2023-12-20T00:44:25;2.3;;;1.7;;
26824;SDS011;14402;48.178;11.566;2023-12-20T00:44:55;2.2;;;1.8;;
26824;SDS011;14402;48.178;11.566;2023-12-20T00:45:26;2.2;;;1.9;;
26824;SDS011;14402;48.178;11.566;2023-12-20T00:45:56;2.2;;;1.9;;
26824;SDS011;14402;48.178;11.566;2023-12-20T00:46:26;2.2;;;1.9;;
26824;SDS011;14402;48.178;11.566;2023-12-20T00:46:57;2.2;;;1.9;;
26824;SDS011;14402;48.178;11.566;2023-12-20T00:47:26;2.1;;;1.9;;
26824;SDS011;14402;48.178;11.566;2023-12-20T00:47:56;2.1;;;1.9;;
26824;SDS011;14402;48.178;11.566;2023-12-20T00:48:26;2.1;;;1.9;;
26824;SDS011;14402;48.178;11.566;2023-12-20T00:48:56;1.9;;;1.8;;
26824;SDS011;14402;48.178;11.566;2023-12-20T00:49:26;1.8;;;1.6;;
26824;SDS011;14402;48.178;11.566;2023-12-20T00:49:56;1.8;;;1.6;;
26824;SDS011;14402;48.178;11.566;2023-12-20T00:50:26;1.8;;;1.6;;
26824;SDS011;14402;48.178;11.566;2023-12-20T00:50:57;1.8;;;1.7;;
26824;SDS011;14402;48.178;11.566;2023-12-20T00:51:27;1.9;;;1.7;;
26824;SDS011;14402;48.178;11.566;2023-12-20T00:51:57;1.9;;;1.7;;
26824;SDS011;14402;48.178;11.566;2023-12-20T00:52:27;1.9;;;1.7;;
26824;SDS011;14402;48.178;11.566;2023-12-20T00:52:57;2.1;;;1.7;;
26824;SDS011;14402;48.178;11.566;2023-12-20T00:53:27;2.3;;;1.6;;
26824;SDS011;14402;48.178;11.566;2023-12-20T00:53:57;2.3;;;1.6;;
26824;SDS011;14402;48.178;11.566;2023-12-20T00:54:27;2.3;;;1.6;;
26824;SDS011;14402;48.178;11.566;2023-12-20T00:54:57;2.1;;;1.6;;
26824;SDS011;14402;48.178;11.566;2023-12-20T00:55:27;1.9;;;1.6;;
26824;SDS011;14402;48.178;11.566;2023-12-20T00:55:57;1.9;;;1.6;;
26824;SDS011;14402;48.178;11.566;2023-12-20T00:56:28;1.9;;;1.6;;
26824;SDS011;14402;48.178;11.566;2023-12-20T00:56:58;2.0;;;1.6;;
26824;SDS011;14402;48.178;11.566;2023-12-20T00:57:28;2.1;;;1.6;;
26824;SDS011;14402;48.178;11.566;2023-12-20T00:57:58;2.1;;;1.6;;
26824;SDS011;14402;48.178;11.566;2023-12-20T00:58:28;2.1;;;1.6;;
26824;SDS011;14402;48.178;11.566;2023-12-20T00:58:58;2.2;;;1.7;;
26824;SDS011;14402;48.178;11.566;2023-12-20T00:59:28;2.3;;;1.8;;
26824;SDS011;14402;48.178;11.566;2023-12-20T00:59:58;2.3;;;1.8;;
26824;SDS011;14402;48.178;11.566;2023-12-20T01:00:28;2.3;;;1.8;;
26824;SDS011;14402;48.178;11.566;2023-12-20T01:00:58;2.3;;;1.8;;
26824;SDS011;14402;48.178;11.566;2023-12-20T01:01:28;2.3;;;1.7;;
26824;SDS011;14402;48.178;11.566;2023-12-20T01:01:58;2.3;;;1.7;;
26824;SDS011;14402;48.178;11.566;2023-12-20T01:02:29;2.3;;;1.7;;
26824;SDS011;14402;48.178;11.566;2023-12-20T01:02:59;2.0;;;1.5;;
26824;SDS011;14402;48.178;11.566;2023-12-20T01:03:29;1.7;;;1.3;;
26824;SDS011;14402;48.178;11.566;2023-12-20T01:03:59;1.7;;;1.3;;
26824;SDS011;14402;48.178;11.566;2023-12-20T01:04:29;1.7;;;1.3;;
26824;SDS011;14402;48.178;11.566;2023-12-20T01:04:59;1.7;;;1.3;;
26824;SDS011;14402;48.178;11.566;2023-12-20T01:05:29;1.6;;;1.4;;
26824;SDS011;14402;48.178;11.566;2023-12-20T01:05:59;1.6;;;1.4;;
26824;SDS011;14402;48.178;11.566;2023-12-20T01:06:29;1.6;;;1.4;;
26824;SDS011;14402;48.178;11.566;2023-12-20T01:06:59;2.2;;;1.5;;
26824;SDS011;14402;48.178;11.566;2023-12-20T01:07:29;2.7;;;1.6;;
26824;SDS011;14402;48.178;11.566;2023-12-20T01:07:59;2.7;;;1.6;;
26824;SDS011;14402;48.178;11.566;2023-12-20T01:08:30;2.7;;;1.6;;
26824;SDS011;14402;48.178;11.566;2023-12-20T01:08:59;2.7;;;1.7;;
26824;SDS011;14402;48.178;11.566;2023-12-20T01:09:30;2.6;;;1.7;;
26824;SDS011;14402;48.178;11.566;2023-12-20T01:10:00;2.6;;;1.7;;
26824;SDS011;14402;48.178;11.566;2023-12-20T01:10:30;2.6;;;1.7;;
26824;SDS011;14402;48.178;11.566;2023-12-20T01:11:00;2.2;;;1.5;;
26824;SDS011;14402;48.178;11.566;2023-12-20T01:11:30;1.7;;;1.4;;
26824;SDS011;14402;48.178;11.566;2023-12-20T01:12:00;1.7;;;1.4;;
26824;SDS011;14402;48.178;11.566;2023-12-20T01:12:30;1.7;;;1.4;;
26824;SDS011;14402;48.178;11.566;2023-12-20T01:13:00;1.8;;;1.5;;
26824;SDS011;14402;48.178;11.566;2023-12-20T01:13:30;1.9;;;1.6;;
26824;SDS011;14402;48.178;11.566;2023-12-20T01:14:00;1.9;;;1.6;;
26824;SDS011;14402;48.178;11.566;2023-12-20T01:14:31;1.9;;;1.6;;
26824;SDS011;14402;48.178;11.566;2023-12-20T01:15:01;1.8;;;1.6;;
26824;SDS011;14402;48.178;11.566;2023-12-20T01:15:31;1.7;;;1.6;;
26824;SDS011;14402;48.178;11.566;2023-12-20T01:16:01;1.7;;;1.6;;
26824;SDS011;14402;48.178;11.566;2023-12-20T01:16:31;1.7;;;1.6;;
26824;SDS011;14402;48.178;11.566;2023-12-20T01:17:01;2.0;;;1.5;;
26824;SDS011;14402;48.178;11.566;2023-12-20T01:17:32;2.3;;;1.4;;
26824;SDS011;14402;48.178;11.566;2023-12-20T01:18:01;2.3;;;1.4;;
26824;SDS011;14402;48.178;11.566;2023-12-20T01:18:31;2.3;;;1.4;;
26824;SDS011;14402;48.178;11.566;2023-12-20T01:19:01;2.0;;;1.5;;
26824;SDS011;14402;48.178;11.566;2023-12-20T01:19:31;1.8;;;1.6;;
26824;SDS011;14402;48.178;11.566;2023-12-20T01:20:02;1.8;;;1.6;;
26824;SDS011;14402;48.178;11.566;2023-12-20T01:20:32;1.8;;;1.6;;
26824;SDS011;14402;48.178;11.566;2023-12-20T01:21:02;1.6;;;1.5;;
26824;SDS011;14402;48.178;11.566;2023-12-20T01:21:32;1.5;;;1.4;;
26824;SDS011;14402;48.178;11.566;2023-12-20T01:22:02;1.5;;;1.4;;
26824;SDS011;14402;48.178;11.566;2023-12-20T01:22:32;1.5;;;1.4;;
26824;SDS011;14402;48.178;11.566;2023-12-20T01:23:02;1.6;;;1.4;;
26824;SDS011;14402;48.178;11.566;2023-12-20T01:23:32;1.8;;;1.4;;
26824;SDS011;14402;48.178;11.566;2023-12-20T01:24:02;1.8;;;1.4;;
26824;SDS011;14402;48.178;11.566;2023-12-20T01:24:32;1.8;;;1.4;;
26824;SDS011;14402;48.178;11.566;2023-12-20T01:25:03;2.0;;;1.4;;
26824;SDS011;14402;48.178;11.566;2023-12-20T01:25:33;2.2;;;1.4;;
26824;SDS011;14402;48.178;11.566;2023-12-20T01:26:03;2.2;;;1.4;;
26824;SDS011;14402;48.178;11.566;2023-12-20T01:26:33;2.2;;;1.4;;
26824;SDS011;14402;48.178;11.566;2023-12-20T01:27:03;2.2;;;1.5;;
26824;SDS011;14402;48.178;11.566;2023-12-20T01:27:33;2.1;;;1.6;;
26824;SDS011;14402;48.178;11.566;2023-12-20T01:28:03;2.1;;;1.6;;
26824;SDS011;14402;48.178;11.566;2023-12-20T01:28:33;2.1;;;1.6;;
26824;SDS011;14402;48.178;11.566;2023-12-20T01:29:03;1.8;;;1.4;;
26824;SDS011;14402;48.178;11.566;2023-12-20T01:29:33;1.6;;;1.2;;
26824;SDS011;14402;48.178;11.566;2023-12-20T01:30:03;1.6;;;1.2;;
26824;SDS011;14402;48.178;11.566;2023-12-20T01:30:33;1.6;;;1.2;;
26824;SDS011;14402;48.178;11.566;2023-12-20T01:31:03;1.5;;;1.2;;
26824;SDS011;14402;48.178;11.566;2023-12-20T01:31:33;1.4;;;1.3;;
26824;SDS011;14402;48.178;11.566;2023-12-20T01:32:03;1.4;;;1.3;;
26824;SDS011;14402;48.178;11.566;2023-12-20T01:32:33;1.4;;;1.3;;
26824;SDS011;14402;48.178;11.566;2023-12-20T01:33:03;1.5;;;1.3;;
26824;SDS011;14402;48.178;11.566;2023-12-20T01:33:33;1.5;;;1.3;;
26824;SDS011;14402;48.178;11.566;2023-12-20T01:34:04;1.5;;;1.3;;
26824;SDS011;14402;48.178;11.566;2023-12-20T01:34:34;1.5;;;1.3;;
26824;SDS011;14402;48.178;11.566;2023-12-20T01:35:04;1.6;;;1.2;;
26824;SDS011;14402;48.178;11.566;2023-12-20T01:35:34;1.7;;;1.2;;
26824;SDS011;14402;48.178;11.566;2023-12-20T01:36:04;1.7;;;1.2;;
26824;SDS011;14402;48.178;11.566;2023-12-20T01:36:34;1.7;;;1.2;;
26824;SDS011;14402;48.178;11.566;2023-12-20T01:37:04;1.8;;;1.3;;
26824;SDS011;14402;48.178;11.566;2023-12-20T01:37:34;1.9;;;1.4;;
26824;SDS011;14402;48.178;11.566;2023-12-20T01:38:04;1.9;;;1.4;;
26824;SDS011;14402;48.178;11.566;2023-12-20T01:38:34;1.9;;;1.4;;
26824;SDS011;14402;48.178;11.566;2023-12-20T01:39:04;2.0;;;1.4;;
26824;SDS011;14402;48.178;11.566;2023-12-20T01:39:34;2.1;;;1.4;;
26824;SDS011;14402;48.178;11.566;2023-12-20T01:40:05;2.1;;;1.4;;
26824;SDS011;14402;48.178;11.566;2023-12-20T01:40:35;2.1;;;1.4;;
26824;SDS011;14402;48.178;11.566;2023-12-20T01:41:05;2.4;;;1.3;;
26824;SDS011;14402;48.178;11.566;2023-12-20T01:41:35;2.7;;;1.3;;
26824;SDS011;14402;48.178;11.566;2023-12-20T01:42:05;2.7;;;1.3;;
26824;SDS011;14402;48.178;11.566;2023-12-20T01:42:35;2.7;;;1.3;;
26824;SDS011;14402;48.178;11.566;2023-12-20T01:43:07;2.4;;;1.3;;
26824;SDS011;14402;48.178;11.566;2023-12-20T01:43:35;2.1;;;1.4;;
26824;SDS011;14402;48.178;11.566;2023-12-20T01:44:05;2.1;;;1.4;;
26824;SDS011;14402;48.178;11.566;2023-12-20T01:44:35;2.1;;;1.4;;
26824;SDS011;14402;48.178;11.566;2023-12-20T01:45:06;1.7;;;1.3;;
26824;SDS011;14402;48.178;11.566;2023-12-20T01:45:35;1.3;;;1.2;;
26824;SDS011;14402;48.178;11.566;2023-12-20T01:46:05;1.3;;;1.2;;
26824;SDS011;14402;48.178;11.566;2023-12-20T01:46:35;1.3;;;1.2;;
26824;SDS011;14402;48.178;11.566;2023-12-20T01:47:06;1.4;;;1.2;;
26824;SDS011;14402;48.178;11.566;2023-12-20T01:47:36;1.5;;;1.1;;
26824;SDS011;14402;48.178;11.566;2023-12-20T01:48:06;1.5;;;1.1;;
26824;SDS011;14402;48.178;11.566;2023-12-20T01:48:36;1.5;;;1.1;;
26824;SDS011;14402;48.178;11.566;2023-12-20T01:49:06;1.7;;;1.2;;
26824;SDS011;14402;48.178;11.566;2023-12-20T01:49:36;1.9;;;1.4;;
26824;SDS011;14402;48.178;11.566;2023-12-20T01:50:06;1.9;;;1.4;;
26824;SDS011;14402;48.178;11.566;2023-12-20T01:50:36;1.9;;;1.4;;
26824;SDS011;14402;48.178;11.566;2023-12-20T01:51:06;2.0;;;1.2;;
26824;SDS011;14402;48.178;11.566;2023-12-20T01:51:36;2.0;;;1.1;;
26824;SDS011;14402;48.178;11.566;2023-12-20T01:52:06;2.0;;;1.1;;
26824;SDS011;14402;48.178;11.566;2023-12-20T01:52:36;2.0;;;1.1;;
26824;SDS011;14402;48.178;11.566;2023-12-20T01:53:07;1.8;;;1.2;;
26824;SDS011;14402;48.178;11.566;2023-12-20T01:53:36;1.6;;;1.3;;
26824;SDS011;14402;48.178;11.566;2023-12-20T01:54:06;1.6;;;1.3;;
26824;SDS011;14402;48.178;11.566;2023-12-20T01:54:36;1.6;;;1.3;;
26824;SDS011;14402;48.178;11.566;2023-12-20T01:55:06;1.5;;;1.2;;
26824;SDS011;14402;48.178;11.566;2023-12-20T01:55:37;1.4;;;1.2;;
26824;SDS011;14402;48.178;11.566;2023-12-20T01:56:06;1.4;;;1.2;;
26824;SDS011;14402;48.178;11.566;2023-12-20T01:56:36;1.4;;;1.2;;
26824;SDS011;14402;48.178;11.566;2023-12-20T01:57:06;1.2;;;1.1;;
26824;SDS011;14402;48.178;11.566;2023-12-20T01:57:37;1.1;;;1.0;;
26824;SDS011;14402;48.178;11.566;2023-12-20T01:58:07;1.1;;;1.0;;
26824;SDS011;14402;48.178;11.566;2023-12-20T01:58:37;1.1;;;1.0;;
26824;SDS011;14402;48.178;11.566;2023-12-20T01:59:07;1.2;;;1.0;;
26824;SDS011;14402;48.178;11.566;2023-12-20T01:59:37;1.2;;;1.1;;
26824;SDS011;14402;48.178;11.566;2023-12-20T02:00:07;1.2;;;1.1;;
26824;SDS011;14402;48.178;11.566;2023-12-20T02:00:37;1.2;;;1.1;;
26824;SDS011;14402;48.178;11.566;2023-12-20T02:01:07;1.3;;;1.0;;
26824;SDS011;14402;48.178;11.566;2023-12-20T02:01:37;1.4;;;1.0;;
26824;SDS011;14402;48.178;11.566;2023-12-20T02:02:07;1.4;;;1.0;;
26824;SDS011;14402;48.178;11.566;2023-12-20T02:02:37;1.4;;;1.0;;
26824;SDS011;14402;48.178;11.566;2023-12-20T02:03:07;1.4;;;1.0;;
26824;SDS011;14402;48.178;11.566;2023-12-20T02:03:37;1.4;;;1.1;;
26824;SDS011;14402;48.178;11.566;2023-12-20T02:04:07;1.4;;;1.1;;
26824;SDS011;14402;48.178;11.566;2023-12-20T02:04:37;1.4;;;1.1;;
26824;SDS011;14402;48.178;11.566;2023-12-20T02:05:07;1.3;;;1.2;;
26824;SDS011;14402;48.178;11.566;2023-12-20T02:05:37;1.3;;;1.2;;
26824;SDS011;14402;48.178;11.566;2023-12-20T02:06:08;1.3;;;1.2;;
26824;SDS011;14402;48.178;11.566;2023-12-20T02:06:37;1.3;;;1.2;;
26824;SDS011;14402;48.178;11.566;2023-12-20T02:07:07;1.4;;;1.2;;
26824;SDS011;14402;48.178;11.566;2023-12-20T02:07:37;1.5;;;1.2;;
26824;SDS011;14402;48.178;11.566;2023-12-20T02:08:07;1.5;;;1.2;;
26824;SDS011;14402;48.178;11.566;2023-12-20T02:08:37;1.5;;;1.2;;
26824;SDS011;14402;48.178;11.566;2023-12-20T02:09:08;1.3;;;1.1;;
26824;SDS011;14402;48.178;11.566;2023-12-20T02:09:38;1.1;;;1.0;;
26824;SDS011;14402;48.178;11.566;2023-12-20T02:10:08;1.1;;;1.0;;
26824;SDS011;14402;48.178;11.566;2023-12-20T02:10:38;1.1;;;1.0;;
26824;SDS011;14402;48.178;11.566;2023-12-20T02:11:08;1.3;;;0.9;;
26824;SDS011;14402;48.178;11.566;2023-12-20T02:11:38;1.5;;;0.9;;
26824;SDS011;14402;48.178;11.566;2023-12-20T02:12:08;1.5;;;0.9;;
26824;SDS011;14402;48.178;11.566;2023-12-20T02:12:38;1.5;;;0.9;;
26824;SDS011;14402;48.178;11.566;2023-12-20T02:13:08;1.6;;;0.9;;
26824;SDS011;14402;48.178;11.566;2023-12-20T02:13:38;1.7;;;1.0;;
26824;SDS011;14402;48.178;11.566;2023-12-20T02:14:08;1.7;;;1.0;;
26824;SDS011;14402;48.178;11.566;2023-12-20T02:14:38;1.7;;;1.0;;
26824;SDS011;14402;48.178;11.566;2023-12-20T02:15:08;1.4;;;0.9;;
26824;SDS011;14402;48.178;11.566;2023-12-20T02:15:38;1.0;;;0.9;;
26824;SDS011;14402;48.178;11.566;2023-12-20T02:16:08;1.0;;;0.9;;
26824;SDS011;14402;48.178;11.566;2023-12-20T02:16:38;1.0;;;0.9;;
26824;SDS011;14402;48.178;11.566;2023-12-20T02:17:39;1.9;;;0.9;;
26824;SDS011;14402;48.178;11.566;2023-12-20T02:18:09;1.9;;;0.9;;
26824;SDS011;14402;48.178;11.566;2023-12-20T02:18:39;1.9;;;0.9;;
26824;SDS011;14402;48.178;11.566;2023-12-20T02:19:10;1.6;;;0.9;;
26824;SDS011;14402;48.178;11.566;2023-12-20T02:19:39;1.3;;;0.9;;
26824;SDS011;14402;48.178;11.566;2023-12-20T02:20:09;1.3;;;0.9;;
26824;SDS011;14402;48.178;11.566;2023-12-20T02:20:39;1.3;;;0.9;;
26824;SDS011;14402;48.178;11.566;2023-12-20T02:21:09;1.0;;;0.9;;
26824;SDS011;14402;48.178;11.566;2023-12-20T02:21:39;0.8;;;0.8;;
26824;SDS011;14402;48.178;11.566;2023-12-20T02:22:10;0.8;;;0.8;;
26824;SDS011;14402;48.178;11.566;2023-12-20T02:22:39;0.8;;;0.8;;
26824;SDS011;14402;48.178;11.566;2023-12-20T02:23:09;1.0;;;0.9;;
26824;SDS011;14402;48.178;11.566;2023-12-20T02:23:39;1.3;;;1.0;;
26824;SDS011;14402;48.178;11.566;2023-12-20T02:24:10;1.3;;;1.0;;
26824;SDS011;14402;48.178;11.566;2023-12-20T02:24:40;1.3;;;1.0;;
26824;SDS011;14402;48.178;11.566;2023-12-20T02:25:10;1.2;;;0.9;;
26824;SDS011;14402;48.178;11.566;2023-12-20T02:25:40;1.1;;;0.8;;
26824;SDS011;14402;48.178;11.566;2023-12-20T02:26:10;1.1;;;0.8;;
26824;SDS011;14402;48.178;11.566;2023-12-20T02:26:40;1.1;;;0.8;;
26824;SDS011;14402;48.178;11.566;2023-12-20T02:27:10;1.2;;;0.9;;
26824;SDS011;14402;48.178;11.566;2023-12-20T02:27:40;1.4;;;0.9;;
26824;SDS011;14402;48.178;11.566;2023-12-20T02:28:10;1.4;;;0.9;;
26824;SDS011;14402;48.178;11.566;2023-12-20T02:28:40;1.4;;;0.9;;
26824;SDS011;14402;48.178;11.566;2023-12-20T02:29:10;1.2;;;0.9;;
26824;SDS011;14402;48.178;11.566;2023-12-20T02:29:41;1.1;;;0.8;;
26824;SDS011;14402;48.178;11.566;2023-12-20T02:30:11;1.1;;;0.8;;
26824;SDS011;14402;48.178;11.566;2023-12-20T02:30:41;1.1;;;0.8;;
26824;SDS011;14402;48.178;11.566;2023-12-20T02:31:11;1.4;;;0.9;;
26824;SDS011;14402;48.178;11.566;2023-12-20T02:31:41;1.6;;;0.9;;
26824;SDS011;14402;48.178;11.566;2023-12-20T02:32:11;1.6;;;0.9;;
26824;SDS011;14402;48.178;11.566;2023-12-20T02:32:41;1.6;;;0.9;;
26824;SDS011;14402;48.178;11.566;2023-12-20T02:33:11;1.3;;;0.8;;
26824;SDS011;14402;48.178;11.566;2023-12-20T02:33:41;1.0;;;0.7;;
26824;SDS011;14402;48.178;11.566;2023-12-20T02:34:11;1.0;;;0.7;;
26824;SDS011;14402;48.178;11.566;2023-12-20T02:34:41;1.0;;;0.7;;
26824;SDS011;14402;48.178;11.566;2023-12-20T02:35:12;0.9;;;0.8;;
26824;SDS011;14402;48.178;11.566;2023-12-20T02:35:42;0.9;;;0.8;;
26824;SDS011;14402;48.178;11.566;2023-12-20T02:36:12;0.9;;;0.8;;
26824;SDS011;14402;48.178;11.566;2023-12-20T02:36:42;0.9;;;0.8;;
26824;SDS011;14402;48.178;11.566;2023-12-20T02:37:12;1.0;;;0.9;;
26824;SDS011;14402;48.178;11.566;2023-12-20T02:37:42;1.1;;;0.9;;
26824;SDS011;14402;48.178;11.566;2023-12-20T02:38:12;1.1;;;0.9;;
26824;SDS011;14402;48.178;11.566;2023-12-20T02:38:42;1.1;;;0.9;;
26824;SDS011;14402;48.178;11.566;2023-12-20T02:39:12;1.2;;;0.9;;
26824;SDS011;14402;48.178;11.566;2023-12-20T02:39:42;1.3;;;0.9;;
26824;SDS011;14402;48.178;11.566;2023-12-20T02:40:12;1.3;;;0.9;;
26824;SDS011;14402;48.178;11.566;2023-12-20T02:40:42;1.3;;;0.9;;
26824;SDS011;14402;48.178;11.566;2023-12-20T02:41:12;1.4;;;0.9;;
26824;SDS011;14402;48.178;11.566;2023-12-20T02:41:42;1.5;;;0.9;;
26824;SDS011;14402;48.178;11.566;2023-12-20T02:42:13;1.5;;;0.9;;
26824;SDS011;14402;48.178;11.566;2023-12-20T02:42:43;1.5;;;0.9;;
26824;SDS011;14402;48.178;11.566;2023-12-20T02:43:13;1.3;;;0.8;;
26824;SDS011;14402;48.178;11.566;2023-12-20T02:43:43;1.1;;;0.6;;
26824;SDS011;14402;48.178;11.566;2023-12-20T02:44:13;1.1;;;0.6;;
26824;SDS011;14402;48.178;11.566;2023-12-20T02:44:43;1.1;;;0.6;;
26824;SDS011;14402;48.178;11.566;2023-12-20T02:45:13;1.2;;;0.6;;
26824;SDS011;14402;48.178;11.566;2023-12-20T02:45:43;1.4;;;0.6;;
26824;SDS011;14402;48.178;11.566;2023-12-20T02:46:13;1.4;;;0.6;;
26824;SDS011;14402;48.178;11.566;2023-12-20T02:46:43;1.4;;;0.6;;
26824;SDS011;14402;48.178;11.566;2023-12-20T02:47:13;1.2;;;0.6;;
26824;SDS011;14402;48.178;11.566;2023-12-20T02:47:43;1.1;;;0.7;;
26824;SDS011;14402;48.178;11.566;2023-12-20T02:48:13;1.1;;;0.7;;
26824;SDS011;14402;48.178;11.566;2023-12-20T02:48:43;1.1;;;0.7;;
26824;SDS011;14402;48.178;11.566;2023-12-20T02:49:13;1.0;;;0.7;;
26824;SDS011;14402;48.178;11.566;2023-12-20T02:49:43;1.0;;;0.7;;
26824;SDS011;14402;48.178;11.566;2023-12-20T02:50:13;1.0;;;0.7;;
26824;SDS011;14402;48.178;11.566;2023-12-20T02:50:43;1.0;;;0.7;;
26824;SDS011;14402;48.178;11.566;2023-12-20T02:51:13;0.9;;;0.7;;
26824;SDS011;14402;48.178;11.566;2023-12-20T02:51:44;0.8;;;0.7;;
26824;SDS011;14402;48.178;11.566;2023-12-20T02:52:14;0.8;;;0.7;;
26824;SDS011;14402;48.178;11.566;2023-12-20T02:52:44;0.8;;;0.7;;
26824;SDS011;14402;48.178;11.566;2023-12-20T02:53:14;0.8;;;0.6;;
26824;SDS011;14402;48.178;11.566;2023-12-20T02:53:44;0.7;;;0.6;;
26824;SDS011;14402;48.178;11.566;2023-12-20T02:54:14;0.7;;;0.6;;
26824;SDS011;14402;48.178;11.566;2023-12-20T02:54:44;0.7;;;0.6;;
26824;SDS011;14402;48.178;11.566;2023-12-20T02:55:14;1.0;;;0.6;;
26824;SDS011;14402;48.178;11.566;2023-12-20T02:55:44;1.2;;;0.6;;
26824;SDS011;14402;48.178;11.566;2023-12-20T02:56:14;1.2;;;0.6;;
26824;SDS011;14402;48.178;11.566;2023-12-20T02:56:44;1.2;;;0.6;;
26824;SDS011;14402;48.178;11.566;2023-12-20T02:57:15;1.0;;;0.6;;
26824;SDS011;14402;48.178;11.566;2023-12-20T02:57:45;0.9;;;0.6;;
26824;SDS011;14402;48.178;11.566;2023-12-20T02:58:15;0.9;;;0.6;;
26824;SDS011;14402;48.178;11.566;2023-12-20T02:58:45;0.9;;;0.6;;
26824;SDS011;14402;48.178;11.566;2023-12-20T02:59:15;1.0;;;0.6;;
26824;SDS011;14402;48.178;11.566;2023-12-20T02:59:45;1.2;;;0.6;;
26824;SDS011;14402;48.178;11.566;2023-12-20T03:00:15;1.2;;;0.6;;
26824;SDS011;14402;48.178;11.566;2023-12-20T03:00:45;1.2;;;0.6;;
26824;SDS011;14402;48.178;11.566;2023-12-20T03:01:15;1.2;;;0.6;;
26824;SDS011;14402;48.178;11.566;2023-12-20T03:01:45;1.3;;;0.5;;
26824;SDS011;14402;48.178;11.566;2023-12-20T03:02:15;1.3;;;0.5;;
26824;SDS011;14402;48.178;11.566;2023-12-20T03:02:46;1.3;;;0.5;;
26824;SDS011;14402;48.178;11.566;2023-12-20T03:03:16;0.9;;;0.5;;
26824;SDS011;14402;48.178;11.566;2023-12-20T03:03:46;0.5;;;0.5;;
26824;SDS011;14402;48.178;11.566;2023-12-20T03:04:16;0.5;;;0.5;;